createdAt,value
2022-09-21T00:00:53.504Z,99437.41
2022-09-21T00:03:20.957Z,99435.47
2022-09-21T00:05:48.121Z,99437.25
2022-09-21T00:08:15.258Z,99437.75
2022-09-21T00:10:42.845Z,99438.53
2022-09-21T00:13:11.874Z,99437.72
2022-09-21T00:15:39.450Z,99430.63
2022-09-21T00:18:06.874Z,99439.50
2022-09-21T00:20:33.981Z,99437.34
2022-09-21T00:23:01.089Z,99433.41
2022-09-21T00:25:28.504Z,99424.72
2022-09-21T00:27:56.063Z,99430.78
2022-09-21T00:30:23.216Z,99435.56
2022-09-21T00:32:50.588Z,99431.72
2022-09-21T00:35:17.720Z,99433.41
2022-09-21T00:37:44.886Z,99428.06
2022-09-21T00:40:12.490Z,99435.97
2022-09-21T00:42:39.641Z,99436.84
2022-09-21T00:45:06.929Z,99435.09
2022-09-21T00:47:34.260Z,99430.66
2022-09-21T00:50:02.561Z,99436.66
2022-09-21T00:52:31.652Z,99443.84
2022-09-21T00:55:08.130Z,99448.22
2022-09-21T00:57:35.613Z,99448.22
2022-09-21T01:00:05.085Z,99448.22
2022-09-21T01:02:32.335Z,99447.31
2022-09-21T01:04:59.485Z,99455.06
2022-09-21T01:07:28.415Z,99448.22
2022-09-21T01:09:58.358Z,99451.72
2022-09-21T01:12:43.904Z,99447.31
2022-09-21T01:15:25.114Z,99448.19
2022-09-21T01:17:55.217Z,99452.59
2022-09-21T01:20:36.003Z,99447.31
2022-09-21T01:23:07.196Z,99455.94
2022-09-21T01:25:53.490Z,99458.34
2022-09-21T01:28:30.367Z,99462.88
2022-09-21T01:30:58.640Z,99455.81
2022-09-21T01:33:25.968Z,99453.19
2022-09-21T01:35:54.849Z,99457.41
2022-09-21T01:38:24.630Z,99448.78
2022-09-21T01:40:52.958Z,99457.50
2022-09-21T01:43:25.417Z,99454.97
2022-09-21T01:45:54.587Z,99467.41
2022-09-21T01:48:22.368Z,99451.56
2022-09-21T01:50:56.536Z,99458.66
2022-09-21T01:53:25.371Z,99462.13
2022-09-21T01:55:53.997Z,99459.53
2022-09-21T01:58:21.081Z,99455.16
2022-09-21T02:00:53.016Z,99458.56
2022-09-21T02:03:30.803Z,99462.94
2022-09-21T02:05:58.958Z,99454.31
2022-09-21T02:08:26.935Z,99457.66
2022-09-21T02:10:54.078Z,99462.09
2022-09-21T02:13:23.386Z,99458.66
2022-09-21T02:15:56.593Z,99465.63
2022-09-21T02:18:26.734Z,99461.25
2022-09-21T02:20:57.126Z,99466.47
2022-09-21T02:23:32.361Z,99466.41
2022-09-21T02:26:06.831Z,99475.69
2022-09-21T02:28:43.792Z,99464.53
2022-09-21T02:31:20.926Z,99469.75
2022-09-21T02:33:52.064Z,99474.91
2022-09-21T02:36:26.476Z,99472.53
2022-09-21T02:38:54.520Z,99476.84
2022-09-21T02:41:24.048Z,99473.44
2022-09-21T02:43:53.284Z,99470.66
2022-09-21T02:46:29.520Z,99473.44
2022-09-21T02:48:58.225Z,99475.22
2022-09-21T02:51:26.324Z,99474.34
2022-09-21T02:53:53.664Z,99483.81
2022-09-21T02:56:21.029Z,99475.19
2022-09-21T02:58:49.857Z,99478.56
2022-09-21T03:01:16.977Z,99480.22
2022-09-21T03:03:44.883Z,99480.38
2022-09-21T03:06:12.062Z,99478.69
2022-09-21T03:08:39.207Z,99485.66
2022-09-21T03:11:07.009Z,99486.50
2022-09-21T03:13:34.608Z,99483.00
2022-09-21T03:16:02.918Z,99495.19
2022-09-21T03:18:30.749Z,99489.06
2022-09-21T03:20:58.036Z,99495.16
2022-09-21T03:23:25.181Z,99495.94
2022-09-21T03:25:52.553Z,99501.28
2022-09-21T03:28:20.011Z,99499.50
2022-09-21T03:30:50.918Z,99496.00
2022-09-21T03:33:19.262Z,99503.84
2022-09-21T03:35:48.251Z,99503.91
2022-09-21T03:38:16.816Z,99499.56
2022-09-21T03:40:47.921Z,99500.44
2022-09-21T03:43:15.137Z,99503.06
2022-09-21T03:45:42.714Z,99500.44
2022-09-21T03:48:10.980Z,99504.78
2022-09-21T03:50:38.293Z,99504.78
2022-09-21T03:53:05.803Z,99514.91
2022-09-21T03:55:33.313Z,99511.63
2022-09-21T03:58:00.681Z,99516.91
2022-09-21T04:00:27.998Z,99512.63
2022-09-21T04:02:55.443Z,99513.47
2022-09-21T04:05:22.869Z,99517.81
2022-09-21T04:07:50.237Z,99512.56
2022-09-21T04:10:19.681Z,99515.22
2022-09-21T04:12:47.029Z,99516.97
2022-09-21T04:15:15.522Z,99516.09
2022-09-21T04:17:42.925Z,99523.03
2022-09-21T04:20:10.029Z,99528.25
2022-09-21T04:22:41.244Z,99523.09
2022-09-21T04:25:10.770Z,99530.03
2022-09-21T04:27:38.008Z,99528.13
2022-09-21T04:30:05.851Z,99530.84
2022-09-21T04:32:33.267Z,99529.09
2022-09-21T04:35:00.399Z,99530.72
2022-09-21T04:37:27.591Z,99530.72
2022-09-21T04:39:54.998Z,99533.94
2022-09-21T04:42:22.206Z,99535.16
2022-09-21T04:44:49.319Z,99530.06
2022-09-21T04:47:16.740Z,99538.38
2022-09-21T04:49:43.883Z,99543.63
2022-09-21T04:52:12.220Z,99547.59
2022-09-21T04:54:41.185Z,99553.09
2022-09-21T04:57:08.327Z,99552.72
2022-09-21T04:59:35.456Z,99552.75
2022-09-21T05:02:02.861Z,99554.84
2022-09-21T05:04:30.017Z,99554.38
2022-09-21T05:06:59.369Z,99567.00
2022-09-21T05:09:45.595Z,99560.41
2022-09-21T05:12:12.734Z,99564.53
2022-09-21T05:14:41.040Z,99556.34
2022-09-21T05:17:08.328Z,99569.69
2022-09-21T05:19:35.449Z,99559.34
2022-09-21T05:22:02.873Z,99560.13
2022-09-21T05:24:29.991Z,99555.28
2022-09-21T05:26:57.102Z,99560.94
2022-09-21T05:29:24.662Z,99556.81
2022-09-21T05:31:52.756Z,99567.53
2022-09-21T05:34:22.867Z,99558.56
2022-09-21T05:36:50.222Z,99567.34
2022-09-21T05:39:17.494Z,99562.16
2022-09-21T05:41:44.742Z,99569.09
2022-09-21T05:44:13.394Z,99568.31
2022-09-21T05:46:54.008Z,99570.09
2022-09-21T05:49:42.322Z,99575.00
2022-09-21T05:52:12.975Z,99576.84
2022-09-21T05:54:47.137Z,99580.47
2022-09-21T05:57:34.324Z,99574.28
2022-09-21T06:00:04.523Z,99576.84
2022-09-21T06:02:45.267Z,99596.94
2022-09-21T06:05:13.201Z,99592.38
2022-09-21T06:07:41.560Z,99591.81
2022-09-21T06:10:09.589Z,99590.00
2022-09-21T06:12:36.971Z,99590.97
2022-09-21T06:15:04.909Z,99587.41
2022-09-21T06:17:32.586Z,99590.88
2022-09-21T06:19:59.960Z,99594.44
2022-09-21T06:22:27.062Z,99597.69
2022-09-21T06:24:54.185Z,99592.72
2022-09-21T06:27:21.713Z,99593.56
2022-09-21T06:29:48.882Z,99596.94
2022-09-21T06:32:16.072Z,99594.47
2022-09-21T06:34:44.666Z,99594.47
2022-09-21T06:37:11.829Z,99597.94
2022-09-21T06:39:39.871Z,99594.22
2022-09-21T06:42:07.377Z,99596.09
2022-09-21T06:44:35.247Z,99596.87
2022-09-21T06:47:02.368Z,99594.44
2022-09-21T06:49:29.773Z,99596.09
2022-09-21T06:51:56.874Z,99595.34
2022-09-21T06:54:24.619Z,99609.28
2022-09-21T06:56:52.013Z,99604.91
2022-09-21T06:59:19.174Z,99604.59
2022-09-21T07:01:46.449Z,99610.00
2022-09-21T07:04:13.943Z,99617.97
2022-09-21T07:06:41.077Z,99616.22
2022-09-21T07:11:55.667Z,99611.87
2022-09-21T07:14:23.459Z,99615.38
2022-09-21T07:16:50.747Z,99612.78
2022-09-21T07:19:18.166Z,99619.72
2022-09-21T07:21:45.292Z,99617.09
2022-09-21T07:24:12.790Z,99620.56
2022-09-21T07:26:40.383Z,99626.69
2022-09-21T07:29:07.792Z,99623.19
2022-09-21T07:31:36.011Z,99612.72
2022-09-21T07:34:03.462Z,99624.06
2022-09-21T07:36:30.617Z,99624.97
2022-09-21T07:38:58.789Z,99622.28
2022-09-21T07:41:26.207Z,99631.81
2022-09-21T07:43:53.583Z,99617.91
2022-09-21T07:46:20.714Z,99631.06
2022-09-21T07:48:48.221Z,99630.16
2022-09-21T07:51:15.499Z,99637.16
2022-09-21T07:53:44.029Z,99642.34
2022-09-21T07:56:12.537Z,99641.47
2022-09-21T07:58:58.227Z,99636.13
2022-09-21T08:01:25.972Z,99629.09
2022-09-21T08:03:54.455Z,99630.16
2022-09-21T08:06:22.112Z,99632.81
2022-09-21T08:08:53.702Z,99627.50
2022-09-21T08:11:24.193Z,99623.53
2022-09-21T08:13:55.192Z,99634.69
2022-09-21T08:16:22.744Z,99631.56
2022-09-21T08:18:51.569Z,99632.72
2022-09-21T08:21:19.289Z,99634.69
2022-09-21T08:23:48.614Z,99629.41
2022-09-21T08:26:20.615Z,99632.63
2022-09-21T08:28:49.299Z,99634.78
2022-09-21T08:31:19.550Z,99630.59
2022-09-21T08:33:47.238Z,99639.41
2022-09-21T08:36:14.365Z,99625.09
2022-09-21T08:38:41.764Z,99630.25
2022-09-21T08:41:18.098Z,99630.25
2022-09-21T08:43:50.233Z,99631.62
2022-09-21T08:46:19.180Z,99637.69
2022-09-21T08:48:56.808Z,99625.97
2022-09-21T08:51:26.740Z,99649.91
2022-09-21T08:53:55.954Z,99636.84
2022-09-21T08:56:23.627Z,99641.16
2022-09-21T08:58:50.761Z,99645.88
2022-09-21T09:01:24.248Z,99640.09
2022-09-21T09:04:16.214Z,99641.69
2022-09-21T09:06:47.932Z,99636.53
2022-09-21T09:09:33.965Z,99641.78
2022-09-21T09:12:01.325Z,99647.09
2022-09-21T09:14:32.159Z,99644.50
2022-09-21T09:17:19.021Z,99639.53
2022-09-21T09:19:49.222Z,99636.53
2022-09-21T09:22:18.079Z,99637.31
2022-09-21T09:24:49.445Z,99639.03
2022-09-21T09:27:27.756Z,99638.53
2022-09-21T09:30:03.685Z,99630.69
2022-09-21T09:32:43.872Z,99625.09
2022-09-21T09:35:20.094Z,99623.09
2022-09-21T09:37:47.500Z,99633.44
2022-09-21T09:40:14.833Z,99629.91
2022-09-21T09:42:48.249Z,99623.75
2022-09-21T09:45:26.342Z,99623.91
2022-09-21T09:47:53.683Z,99626.03
2022-09-21T09:50:24.402Z,99633.34
2022-09-21T09:52:53.140Z,99627.59
2022-09-21T09:55:25.800Z,99631.22
2022-09-21T09:57:54.957Z,99632.28
2022-09-21T10:00:22.666Z,99633.91
2022-09-21T10:02:51.478Z,99623.41
2022-09-21T10:05:20.017Z,99628.16
2022-09-21T10:07:47.294Z,99629.38
2022-09-21T10:10:32.975Z,99637.22
2022-09-21T10:13:15.295Z,99624.25
2022-09-21T10:15:57.450Z,99626.72
2022-09-21T10:18:25.588Z,99614.81
2022-09-21T10:20:56.140Z,99620.69
2022-09-21T10:23:23.397Z,99620.97
2022-09-21T10:25:54.541Z,99606.25
2022-09-21T10:28:21.996Z,99614.88
2022-09-21T10:30:49.407Z,99612.69
2022-09-21T10:33:20.474Z,99603.91
2022-09-21T10:35:53.953Z,99617.28
2022-09-21T10:38:22.751Z,99607.34
2022-09-21T10:40:50.462Z,99606.50
2022-09-21T10:43:43.624Z,99604.66
2022-09-21T10:46:11.471Z,99598.34
2022-09-21T10:48:38.638Z,99597.37
2022-09-21T10:51:05.779Z,99598.88
2022-09-21T10:53:36.789Z,99603.50
2022-09-21T10:56:16.735Z,99598.75
2022-09-21T10:59:03.997Z,99599.66
2022-09-21T11:01:31.332Z,99603.34
2022-09-21T11:04:09.000Z,99590.09
2022-09-21T11:06:46.815Z,99588.38
2022-09-21T11:09:17.183Z,99591.97
2022-09-21T11:11:59.515Z,99590.59
2022-09-21T11:14:44.842Z,99585.41
2022-09-21T11:17:12.236Z,99585.12
2022-09-21T11:19:44.424Z,99593.88
2022-09-21T11:22:20.695Z,99585.69
2022-09-21T11:25:03.427Z,99585.00
2022-09-21T11:27:33.742Z,99577.84
2022-09-21T11:30:10.789Z,99586.38
2022-09-21T11:32:45.274Z,99577.81
2022-09-21T11:35:15.744Z,99568.50
2022-09-21T11:37:50.488Z,99569.13
2022-09-21T11:40:17.887Z,99575.38
2022-09-21T11:42:48.977Z,99565.53
2022-09-21T11:45:32.633Z,99569.78
2022-09-21T11:47:59.968Z,99562.69
2022-09-21T11:50:31.304Z,99559.13
2022-09-21T11:53:17.463Z,99562.22
2022-09-21T11:55:47.853Z,99557.63
2022-09-21T11:58:15.337Z,99562.28
2022-09-21T12:00:45.518Z,99564.81
2022-09-21T12:03:31.587Z,99559.75
2022-09-21T12:06:14.045Z,99552.06
2022-09-21T12:08:54.189Z,99550.63
2022-09-21T12:11:21.271Z,99551.91
2022-09-21T12:13:55.256Z,99549.38
2022-09-21T12:16:25.407Z,99551.00
2022-09-21T12:18:55.725Z,99549.22
2022-09-21T12:21:27.850Z,99544.06
2022-09-21T12:23:56.694Z,99549.16
2022-09-21T12:26:41.640Z,99536.59
2022-09-21T12:29:13.792Z,99532.44
2022-09-21T12:31:45.328Z,99540.62
2022-09-21T12:34:19.929Z,99534.81
2022-09-21T12:37:08.511Z,99535.25
2022-09-21T12:39:40.578Z,99532.12
2022-09-21T12:42:10.268Z,99534.16
2022-09-21T12:44:52.370Z,99533.03
2022-09-21T12:47:23.754Z,99530.88
2022-09-21T12:49:51.377Z,99531.81
2022-09-21T12:52:20.242Z,99538.16
2022-09-21T12:54:50.088Z,99533.88
2022-09-21T12:57:49.162Z,99536.56
2022-09-21T13:00:14.667Z,99541.84
2022-09-21T13:03:00.753Z,99535.56
2022-09-21T13:05:27.881Z,99531.75
2022-09-21T13:07:58.166Z,99528.25
2022-09-21T13:10:28.757Z,99517.41
2022-09-21T13:12:56.674Z,99525.22
2022-09-21T13:15:27.190Z,99516.13
2022-09-21T13:17:58.791Z,99519.16
2022-09-21T13:20:26.194Z,99504.50
2022-09-21T13:22:58.227Z,99514.41
2022-09-21T13:25:28.101Z,99505.31
2022-09-21T13:28:07.707Z,99510.88
2022-09-21T13:30:39.460Z,99508.66
2022-09-21T13:33:18.856Z,99508.72
2022-09-21T13:35:54.028Z,99497.16
2022-09-21T13:38:31.194Z,99503.84
2022-09-21T13:41:02.462Z,99493.47
2022-09-21T13:43:48.049Z,99497.03
2022-09-21T13:46:34.274Z,99494.53
2022-09-21T13:49:16.470Z,99499.47
2022-09-21T13:51:50.072Z,99493.53
2022-09-21T13:54:17.150Z,99492.88
2022-09-21T13:56:44.788Z,99485.22
2022-09-21T13:59:21.378Z,99494.22
2022-09-21T14:01:48.879Z,99491.28
2022-09-21T14:04:21.036Z,99487.34
2022-09-21T14:06:48.660Z,99482.34
2022-09-21T14:09:40.498Z,99489.25
2022-09-21T14:12:09.246Z,99485.00
2022-09-21T14:14:37.412Z,99499.88
2022-09-21T14:17:05.129Z,99495.72
2022-09-21T14:19:33.445Z,99499.06
2022-09-21T14:22:03.478Z,99506.31
2022-09-21T14:24:38.227Z,99506.00
2022-09-21T14:27:09.562Z,99499.88
2022-09-21T14:29:39.781Z,99502.03
2022-09-21T14:32:11.888Z,99491.84
2022-09-21T14:34:39.509Z,99505.75
2022-09-21T14:37:11.175Z,99499.06
2022-09-21T14:39:41.277Z,99503.69
2022-09-21T14:42:15.953Z,99508.13
2022-09-21T14:44:43.497Z,99505.84
2022-09-21T14:47:11.338Z,99508.25
2022-09-21T14:49:38.521Z,99513.06
2022-09-21T14:52:31.374Z,99503.47
2022-09-21T14:55:08.233Z,99505.22
2022-09-21T14:58:14.413Z,99499.94
2022-09-21T15:00:43.342Z,99503.94
2022-09-21T15:03:29.953Z,99499.78
2022-09-21T15:06:23.290Z,99498.28
2022-09-21T15:09:23.517Z,99490.53
2022-09-21T15:11:56.531Z,99496.06
2022-09-21T15:14:44.183Z,99503.75
2022-09-21T15:17:19.312Z,99500.91
2022-09-21T15:19:47.143Z,99505.59
2022-09-21T15:22:18.774Z,99492.00
2022-09-21T15:24:54.914Z,99497.16
2022-09-21T15:27:23.849Z,99496.13
2022-09-21T15:29:53.146Z,99499.06
2022-09-21T15:32:20.198Z,99495.91
2022-09-21T15:34:47.621Z,99496.31
2022-09-21T15:37:18.074Z,99506.53
2022-09-21T15:39:45.256Z,99509.19
2022-09-21T15:42:19.634Z,99509.97
2022-09-21T15:44:48.806Z,99497.25
2022-09-21T15:47:19.994Z,99509.16
2022-09-21T15:49:48.019Z,99513.16
2022-09-21T15:52:32.414Z,99512.38
2022-09-21T15:55:00.517Z,99518.75
2022-09-21T15:57:41.603Z,99521.63
2022-09-21T16:00:15.431Z,99528.72
2022-09-21T16:02:43.413Z,99513.78
2022-09-21T16:05:14.188Z,99521.06
2022-09-21T16:07:41.604Z,99533.59
2022-09-21T16:10:28.409Z,99534.81
2022-09-21T16:13:30.638Z,99533.47
2022-09-21T16:16:05.239Z,99533.66
2022-09-21T16:18:35.303Z,99536.56
2022-09-21T16:21:12.318Z,99535.59
2022-09-21T16:23:39.620Z,99542.91
2022-09-21T16:26:07.163Z,99537.63
2022-09-21T16:28:37.181Z,99537.75
2022-09-21T16:31:23.984Z,99538.66
2022-09-21T16:33:54.373Z,99540.47
2022-09-21T16:36:25.537Z,99538.03
2022-09-21T16:38:56.224Z,99547.59
2022-09-21T16:41:24.784Z,99536.69
2022-09-21T16:43:52.152Z,99551.63
2022-09-21T16:46:19.616Z,99550.72
2022-09-21T16:48:46.788Z,99550.66
2022-09-21T16:51:17.038Z,99548.88
2022-09-21T16:53:44.686Z,99548.59
2022-09-21T16:56:15.337Z,99561.03
2022-09-21T16:58:45.404Z,99554.88
2022-09-21T17:01:13.516Z,99558.28
2022-09-21T17:03:40.704Z,99550.00
2022-09-21T17:06:15.412Z,99558.87
2022-09-21T17:08:42.997Z,99558.00
2022-09-21T17:11:10.097Z,99569.13
2022-09-21T17:13:38.075Z,99566.53
2022-09-21T17:16:05.571Z,99575.97
2022-09-21T17:18:35.746Z,99568.59
2022-09-21T17:21:04.469Z,99570.38
2022-09-21T17:23:31.894Z,99568.75
2022-09-21T17:25:59.197Z,99570.09
2022-09-21T17:28:27.179Z,99578.34
2022-09-21T17:30:54.722Z,99582.22
2022-09-21T17:33:23.069Z,99593.94
2022-09-21T17:35:51.225Z,99581.28
2022-09-21T17:38:18.660Z,99585.62
2022-09-21T17:40:46.649Z,99587.22
2022-09-21T17:43:13.780Z,99586.31
2022-09-21T17:45:43.564Z,99593.38
2022-09-21T17:48:13.037Z,99593.34
2022-09-21T17:50:40.505Z,99593.16
2022-09-21T17:53:27.626Z,99593.16
2022-09-21T17:55:57.138Z,99599.00
2022-09-21T17:58:36.419Z,99597.41
2022-09-21T18:01:07.508Z,99607.63
2022-09-21T18:03:37.832Z,99608.62
2022-09-21T18:06:05.170Z,99618.78
2022-09-21T18:08:36.173Z,99625.78
2022-09-21T18:11:03.967Z,99620.47
2022-09-21T18:13:34.376Z,99624.25
2022-09-21T18:16:21.519Z,99616.09
2022-09-21T18:19:07.754Z,99618.38
2022-09-21T18:21:35.898Z,99624.50
2022-09-21T18:24:15.109Z,99624.94
2022-09-21T18:26:44.434Z,99628.75
2022-09-21T18:29:38.905Z,99629.63
2022-09-21T18:32:16.259Z,99633.25
2022-09-21T18:34:51.111Z,99632.22
2022-09-21T18:37:18.748Z,99637.66
2022-09-21T18:39:50.805Z,99636.19
2022-09-21T18:42:23.033Z,99634.31
2022-09-21T18:44:53.518Z,99625.91
2022-09-21T18:47:22.711Z,99628.06
2022-09-21T18:49:50.194Z,99634.91
2022-09-21T18:52:21.486Z,99627.34
2022-09-21T18:54:49.592Z,99638.38
2022-09-21T18:57:16.857Z,99643.81
2022-09-21T18:59:44.479Z,99649.59
2022-09-21T19:02:20.282Z,99642.06
2022-09-21T19:04:49.282Z,99645.50
2022-09-21T19:07:28.950Z,99641.91
2022-09-21T19:10:15.549Z,99641.84
2022-09-21T19:12:49.206Z,99641.34
2022-09-21T19:15:48.717Z,99643.28
2022-09-21T19:18:15.695Z,99634.31
2022-09-21T19:21:04.381Z,99640.13
2022-09-21T19:23:31.549Z,99634.47
2022-09-21T19:26:19.682Z,99628.84
2022-09-21T19:28:50.430Z,99633.63
2022-09-21T19:31:21.334Z,99646.75
2022-09-21T19:33:51.198Z,99639.19
2022-09-21T19:36:19.430Z,99643.37
2022-09-21T19:38:46.695Z,99643.63
2022-09-21T19:41:26.180Z,99646.72
2022-09-21T19:43:56.645Z,99640.31
2022-09-21T19:46:33.537Z,99639.53
2022-09-21T19:49:19.750Z,99633.25
2022-09-21T19:51:50.685Z,99639.19
2022-09-21T19:54:37.971Z,99631.16
2022-09-21T19:57:37.108Z,99637.47
2022-09-21T20:00:09.162Z,99633.88
2022-09-21T20:02:55.617Z,99623.62
2022-09-21T20:05:28.555Z,99627.81
2022-09-21T20:08:03.153Z,99628.28
2022-09-21T20:10:40.885Z,99626.19
2022-09-21T20:13:22.019Z,99623.50
2022-09-21T20:15:49.186Z,99619.97
2022-09-21T20:18:35.322Z,99625.31
2022-09-21T20:21:02.551Z,99630.13
2022-09-21T20:23:30.292Z,99621.22
2022-09-21T20:25:59.966Z,99643.25
2022-09-21T20:28:27.277Z,99634.75
2022-09-21T20:30:54.779Z,99647.28
2022-09-21T20:33:22.746Z,99640.56
2022-09-21T20:35:50.444Z,99645.63
2022-09-21T20:38:18.523Z,99646.06
2022-09-21T20:40:46.909Z,99648.06
2022-09-21T20:43:14.311Z,99649.06
2022-09-21T20:45:50.313Z,99655.25
2022-09-21T20:48:17.595Z,99654.53
2022-09-21T20:50:46.288Z,99650.09
2022-09-21T20:53:13.540Z,99651.09
2022-09-21T20:55:41.149Z,99645.81
2022-09-21T20:58:11.064Z,99646.72
2022-09-21T21:00:38.232Z,99642.41
2022-09-21T21:03:05.406Z,99639.78
2022-09-21T21:05:32.818Z,99645.81
2022-09-21T21:07:59.940Z,99643.19
2022-09-21T21:10:27.092Z,99641.38
2022-09-21T21:12:55.064Z,99642.25
2022-09-21T21:15:22.218Z,99649.16
2022-09-21T21:17:49.429Z,99640.47
2022-09-21T21:20:17.078Z,99640.53
2022-09-21T21:22:44.822Z,99646.75
2022-09-21T21:25:11.948Z,99646.69
2022-09-21T21:27:39.742Z,99635.34
2022-09-21T21:30:07.673Z,99644.06
2022-09-21T21:32:35.134Z,99637.81
2022-09-21T21:35:02.527Z,99637.72
2022-09-21T21:37:29.830Z,99634.22
2022-09-21T21:39:57.066Z,99632.34
2022-09-21T21:42:25.386Z,99627.34
2022-09-21T21:44:52.538Z,99628.13
2022-09-21T21:50:07.191Z,99638.44
2022-09-21T21:52:34.317Z,99632.63
2022-09-21T21:55:02.412Z,99637.78
2022-09-21T21:57:30.119Z,99640.47
2022-09-21T21:59:57.410Z,99643.06
2022-09-21T22:02:24.632Z,99641.97
2022-09-21T22:04:52.696Z,99652.34
2022-09-21T22:07:19.807Z,99646.78
2022-09-21T22:09:46.903Z,99645.31
2022-09-21T22:12:14.497Z,99641.94
2022-09-21T22:14:41.609Z,99639.22
2022-09-21T22:17:08.751Z,99639.53
2022-09-21T22:19:36.160Z,99637.03
2022-09-21T22:22:03.249Z,99638.84
2022-09-21T22:24:30.347Z,99632.69
2022-09-21T22:26:57.754Z,99630.94
2022-09-21T22:29:24.885Z,99632.56
2022-09-21T22:31:52.536Z,99626.16
2022-09-21T22:34:20.512Z,99628.09
2022-09-21T22:36:47.609Z,99635.81
2022-09-21T22:39:14.773Z,99622.25
2022-09-21T22:41:42.303Z,99622.22
2022-09-21T22:44:10.240Z,99630.03
2022-09-21T22:46:37.613Z,99628.06
2022-09-21T22:49:05.231Z,99625.44
2022-09-21T22:51:32.642Z,99621.41
2022-09-21T22:54:01.436Z,99624.75
2022-09-21T22:56:29.594Z,99614.94
2022-09-21T22:58:58.341Z,99617.81
2022-09-21T23:01:36.441Z,99611.94
2022-09-21T23:04:05.112Z,99614.41
2022-09-21T23:06:33.418Z,99608.41
2022-09-21T23:09:01.543Z,99609.16
2022-09-21T23:11:30.101Z,99611.81
2022-09-21T23:13:57.804Z,99603.06
2022-09-21T23:16:25.554Z,99607.38
2022-09-21T23:18:53.665Z,99608.97
2022-09-21T23:21:21.793Z,99604.84
2022-09-21T23:23:49.056Z,99606.56
2022-09-21T23:26:17.587Z,99613.03
2022-09-21T23:28:45.755Z,99604.59
2022-09-21T23:31:13.765Z,99616.56
2022-09-21T23:33:42.455Z,99601.06
2022-09-21T23:36:10.257Z,99614.66
2022-09-21T23:38:37.738Z,99601.97
2022-09-21T23:41:06.730Z,99618.44
2022-09-21T23:43:34.317Z,99612.28
2022-09-21T23:46:01.865Z,99614.31
2022-09-21T23:48:29.307Z,99612.69
2022-09-21T23:50:56.786Z,99609.28
2022-09-21T23:53:24.239Z,99608.41
2022-09-21T23:55:51.765Z,99604.91
2022-09-21T23:58:18.941Z,99606.59
